Time;durP1;ratioP1;P1;durP2;ratioP2;P2;SDS_P1;SDS_P2;PMS_P1;PMS_P2;Temp;Humidity;BMP_temperature;BMP_pressure;BME280_temperature;BME280_humidity;BME280_pressure;Samples;Min_cycle;Max_cycle;Signal;HPM_P1;HPM_P2
2021/12/04 00:02:06;;;;;;;38.33;25.35;;;4.70;99.90;;;;;;4958654;28;20102;-65
2021/12/04 00:04:38;;;;;;;33.63;24.40;;;4.70;99.90;;;;;;4966453;28;20035;-65
2021/12/04 00:07:07;;;;;;;37.15;24.42;;;4.70;99.90;;;;;;4956104;28;20053;-65
2021/12/04 00:09:33;;;;;;;36.38;24.00;;;4.70;99.90;;;;;;4959709;28;20051;-65
2021/12/04 00:12:03;;;;;;;32.22;22.48;;;4.70;99.90;;;;;;4963640;28;20042;-65
2021/12/04 00:14:30;;;;;;;35.63;24.02;;;4.70;99.90;;;;;;4961152;28;20035;-65
2021/12/04 00:16:56;;;;;;;35.20;23.45;;;4.70;99.90;;;;;;4959838;28;20053;-65
2021/12/04 00:19:23;;;;;;;37.35;24.52;;;4.70;99.90;;;;;;4956766;28;20082;-65
2021/12/04 00:21:50;;;;;;;40.15;24.83;;;4.70;99.90;;;;;;4961770;28;20046;-65
2021/12/04 00:24:16;;;;;;;37.08;22.92;;;4.70;99.90;;;;;;4959049;28;20113;-65
2021/12/04 00:26:42;;;;;;;41.47;25.30;;;4.70;99.90;;;;;;4962495;28;20094;-65
2021/12/04 00:29:08;;;;;;;38.15;24.25;;;4.70;99.90;;;;;;4958863;28;20043;-65
2021/12/04 00:31:34;;;;;;;36.70;23.83;;;4.70;99.90;;;;;;4965698;28;20450;-65
2021/12/04 00:34:00;;;;;;;37.65;24.67;;;4.70;99.90;;;;;;4958848;28;20529;-65
2021/12/04 00:49:49;;;;;;;39.63;22.73;;;4.60;99.90;;;;;;4961401;28;20076;-65
2021/12/04 00:52:14;;;;;;;43.63;23.70;;;4.70;99.90;;;;;;4965473;28;20117;-65
2021/12/04 00:54:40;;;;;;;40.25;23.85;;;4.60;99.90;;;;;;4956911;28;20443;-65
2021/12/04 00:57:06;;;;;;;46.28;25.08;;;4.60;99.90;;;;;;4964946;28;20070;-65
2021/12/04 00:59:32;;;;;;;47.28;24.50;;;4.60;99.90;;;;;;4953905;28;20394;-65
2021/12/04 01:01:57;;;;;;;42.05;22.63;;;4.60;99.90;;;;;;4962918;28;20026;-65
2021/12/04 01:04:24;;;;;;;45.60;24.73;;;4.70;99.90;;;;;;4963860;28;20106;-65
2021/12/04 01:06:50;;;;;;;46.45;25.10;;;4.70;99.90;;;;;;4964533;28;20059;-65
2021/12/04 01:09:18;;;;;;;45.88;24.42;;;4.60;99.90;;;;;;4945867;28;20051;-65
2021/12/04 01:11:45;;;;;;;44.75;22.95;;;4.60;99.90;;;;;;4959100;28;20094;-65
2021/12/04 01:14:13;;;;;;;44.40;22.80;;;4.70;99.90;;;;;;4956959;28;20036;-65
2021/12/04 01:16:39;;;;;;;41.88;21.73;;;4.60;99.90;;;;;;4955975;28;20475;-65
2021/12/04 01:19:05;;;;;;;38.35;22.13;;;4.60;99.90;;;;;;4966203;28;20117;-65
2021/12/04 01:21:31;;;;;;;34.33;21.08;;;4.70;99.90;;;;;;4961525;28;20037;-65
2021/12/04 01:23:57;;;;;;;32.53;20.42;;;4.60;99.90;;;;;;4968215;28;20043;-65
2021/12/04 01:26:23;;;;;;;35.75;20.38;;;4.60;99.90;;;;;;4963377;28;20459;-65
2021/12/04 01:28:49;;;;;;;32.20;18.80;;;4.60;99.90;;;;;;4964978;28;20097;-65
2021/12/04 01:31:15;;;;;;;30.88;19.92;;;4.60;99.90;;;;;;4946606;28;20039;-65
2021/12/04 01:33:41;;;;;;;33.15;18.88;;;4.60;99.90;;;;;;4968568;28;20050;-65
2021/12/04 01:36:07;;;;;;;29.70;19.85;;;4.70;99.90;;;;;;4958136;28;20043;-65
2021/12/04 01:38:33;;;;;;;28.83;18.77;;;4.60;99.90;;;;;;4970436;28;20117;-65
2021/12/04 01:40:58;;;;;;;27.30;17.67;;;4.60;99.90;;;;;;4949333;28;20058;-65
2021/12/04 01:43:24;;;;;;;23.23;17.63;;;4.70;99.90;;;;;;4951101;28;20055;-65
2021/12/04 01:45:54;;;;;;;22.20;16.55;;;4.60;99.90;;;;;;4962589;28;20042;-65
2021/12/04 01:48:20;;;;;;;20.40;16.30;;;4.60;99.90;;;;;;4966413;28;20035;-65
2021/12/04 01:50:45;;;;;;;20.45;15.93;;;4.60;99.90;;;;;;4950945;28;20427;-65
2021/12/04 01:53:11;;;;;;;22.15;15.93;;;4.60;99.90;;;;;;4957556;28;20050;-65
2021/12/04 01:55:37;;;;;;;22.17;16.77;;;4.60;99.90;;;;;;4964699;28;20558;-65
2021/12/04 01:58:04;;;;;;;16.83;15.02;;;4.70;99.90;;;;;;4960378;28;20058;-65
2021/12/04 02:00:33;;;;;;;20.13;15.75;;;4.70;99.90;;;;;;4952224;28;20093;-65
2021/12/04 02:02:59;;;;;;;18.38;15.32;;;4.70;99.90;;;;;;4959529;28;20051;-65
2021/12/04 02:05:25;;;;;;;18.27;15.23;;;4.60;99.90;;;;;;4960067;28;20114;-65
2021/12/04 02:07:51;;;;;;;17.55;14.40;;;4.60;99.90;;;;;;4959864;28;20050;-65
2021/12/04 02:10:17;;;;;;;16.40;14.70;;;4.60;99.90;;;;;;4966216;28;20034;-65
2021/12/04 02:12:43;;;;;;;17.20;15.40;;;4.60;99.90;;;;;;4958305;28;20046;-65
2021/12/04 02:15:12;;;;;;;17.05;15.25;;;4.60;99.90;;;;;;4968439;28;20137;-65
2021/12/04 02:17:38;;;;;;;18.50;15.40;;;4.60;99.90;;;;;;4956131;28;20090;-65
2021/12/04 02:20:10;;;;;;;17.15;15.32;;;4.70;99.90;;;;;;4968194;28;20125;-65
2021/12/04 02:22:36;;;;;;;18.88;15.95;;;4.60;99.90;;;;;;4961665;28;20063;-65
2021/12/04 02:25:02;;;;;;;20.05;17.20;;;4.70;99.90;;;;;;4969414;28;20070;-65
2021/12/04 02:27:27;;;;;;;17.55;15.30;;;4.60;99.90;;;;;;4958472;28;20113;-65
2021/12/04 02:29:53;;;;;;;19.08;15.77;;;4.60;99.90;;;;;;4960867;28;20290;-65
2021/12/04 02:32:20;;;;;;;17.67;15.80;;;4.60;99.90;;;;;;4967177;28;20178;-65
2021/12/04 02:34:46;;;;;;;17.70;15.82;;;4.60;99.90;;;;;;4957370;28;20051;-65
2021/12/04 02:37:12;;;;;;;18.85;16.45;;;4.60;99.90;;;;;;4959440;28;20050;-65
2021/12/04 02:39:43;;;;;;;19.33;16.67;;;4.60;99.90;;;;;;4957306;28;20074;-65
2021/12/04 02:42:19;;;;;;;20.13;16.23;;;4.60;99.90;;;;;;4966028;28;20616;-65
2021/12/04 02:44:45;;;;;;;18.00;16.08;;;4.60;99.90;;;;;;4963033;28;20085;-65
2021/12/04 02:47:11;;;;;;;19.17;16.23;;;4.60;99.90;;;;;;4944725;28;20047;-65
2021/12/04 02:49:37;;;;;;;18.27;15.52;;;4.60;99.90;;;;;;4960473;28;20056;-65
2021/12/04 02:52:05;;;;;;;16.33;14.65;;;4.60;99.90;;;;;;4966835;28;20125;-65
2021/12/04 02:54:32;;;;;;;17.83;15.45;;;4.60;99.90;;;;;;4962077;28;20491;-65
2021/12/04 02:56:58;;;;;;;18.40;16.42;;;4.60;99.90;;;;;;4963580;28;20042;-65
2021/12/04 02:59:24;;;;;;;16.92;15.13;;;4.70;99.90;;;;;;4958814;28;20113;-65
2021/12/04 03:01:53;;;;;;;19.60;15.18;;;4.60;99.90;;;;;;4949154;28;20043;-65
2021/12/04 03:04:21;;;;;;;20.70;16.20;;;4.60;99.90;;;;;;4961045;28;20122;-65
2021/12/04 03:06:47;;;;;;;16.88;15.02;;;4.60;99.90;;;;;;4950570;28;20043;-65
2021/12/04 03:09:14;;;;;;;15.18;13.57;;;4.60;99.90;;;;;;4944781;28;22246;-65
2021/12/04 03:11:40;;;;;;;18.33;14.15;;;4.60;99.90;;;;;;4965582;28;20046;-65
2021/12/04 03:14:06;;;;;;;17.27;14.98;;;4.60;99.90;;;;;;4964941;28;20053;-65
2021/12/04 03:16:37;;;;;;;18.95;15.07;;;4.70;99.90;;;;;;4963091;28;20035;-65
2021/12/04 03:19:04;;;;;;;17.25;14.30;;;4.70;99.90;;;;;;4964642;28;20035;-65
2021/12/04 03:21:31;;;;;;;15.77;14.13;;;4.60;99.90;;;;;;4949259;28;20407;-65
2021/12/04 03:24:00;;;;;;;15.45;13.75;;;4.60;99.90;;;;;;4967157;28;20031;-65
2021/12/04 03:26:26;;;;;;;15.32;13.50;;;4.60;99.90;;;;;;4961288;28;20045;-65
2021/12/04 03:28:53;;;;;;;16.50;13.85;;;4.60;99.90;;;;;;4960261;28;20101;-65
2021/12/04 03:42:15;;;;;;;16.55;12.82;;;4.60;99.90;;;;;;4956246;28;20054;-65
2021/12/04 03:44:41;;;;;;;16.85;12.98;;;4.60;99.90;;;;;;4964027;28;20034;-65
2021/12/04 03:47:09;;;;;;;16.90;13.77;;;4.60;99.90;;;;;;4964255;28;20030;-65
2021/12/04 03:49:34;;;;;;;17.23;13.15;;;4.60;99.90;;;;;;4968845;28;20117;-65
2021/12/04 03:52:00;;;;;;;16.45;13.60;;;4.60;99.90;;;;;;4956854;28;20118;-65
2021/12/04 03:54:26;;;;;;;17.40;13.50;;;4.60;99.90;;;;;;4966426;28;20565;-65
2021/12/04 03:57:01;;;;;;;20.05;14.13;;;4.60;99.90;;;;;;4956805;28;20544;-65
2021/12/04 03:59:27;;;;;;;18.45;13.02;;;4.60;99.90;;;;;;4963668;28;20122;-65
2021/12/04 04:01:52;;;;;;;19.92;14.43;;;4.60;99.90;;;;;;4962722;28;20106;-65
2021/12/04 04:04:18;;;;;;;20.73;14.65;;;4.60;99.90;;;;;;4946901;28;20110;-65
2021/12/04 04:06:44;;;;;;;17.77;13.55;;;4.60;99.90;;;;;;4961717;28;20137;-65
2021/12/04 04:09:09;;;;;;;17.30;13.32;;;4.60;99.90;;;;;;4965597;28;20090;-65
2021/12/04 04:11:36;;;;;;;18.67;14.23;;;4.60;99.90;;;;;;4952413;28;20046;-65
2021/12/04 04:14:05;;;;;;;17.17;14.07;;;4.50;99.90;;;;;;4965155;28;20097;-65
2021/12/04 04:16:36;;;;;;;17.70;13.80;;;4.50;99.90;;;;;;4962517;28;20530;-65
2021/12/04 04:19:03;;;;;;;17.42;13.25;;;4.50;99.90;;;;;;4966888;28;20047;-65
2021/12/04 04:21:29;;;;;;;18.30;13.95;;;4.50;99.90;;;;;;4970471;28;20122;-65
2021/12/04 04:23:55;;;;;;;15.93;13.00;;;4.50;99.90;;;;;;4962897;28;20093;-65
2021/12/04 04:26:21;;;;;;;18.58;13.00;;;4.50;99.90;;;;;;4968784;28;20118;-65
2021/12/04 04:28:47;;;;;;;15.95;12.80;;;4.60;99.90;;;;;;4962997;28;20074;-65
2021/12/04 04:31:13;;;;;;;18.67;13.98;;;4.50;99.90;;;;;;4966387;28;20034;-65
2021/12/04 04:33:42;;;;;;;16.05;12.65;;;4.60;99.90;;;;;;4960858;28;20121;-65
2021/12/04 05:11:23;;;;;;;14.88;12.38;;;4.50;99.90;;;;;;4964260;28;20082;-65
2021/12/04 05:13:50;;;;;;;15.67;12.70;;;4.50;99.90;;;;;;4976229;28;20137;-65
2021/12/04 05:16:17;;;;;;;16.60;12.52;;;4.50;99.90;;;;;;4970123;28;20110;-65
2021/12/04 05:18:56;;;;;;;14.38;12.38;;;4.60;99.90;;;;;;4967190;28;20093;-65
2021/12/04 05:21:22;;;;;;;15.43;13.32;;;4.60;99.90;;;;;;4964665;28;20363;-65
2021/12/04 05:23:52;;;;;;;15.60;12.45;;;4.50;99.90;;;;;;4949277;28;20062;-65
2021/12/04 05:26:26;;;;;;;15.25;12.73;;;4.50;99.90;;;;;;4963819;28;20042;-65
2021/12/04 05:28:54;;;;;;;13.05;11.70;;;4.60;99.90;;;;;;4963833;28;20721;-65
2021/12/04 05:31:20;;;;;;;15.43;11.95;;;4.60;99.90;;;;;;4946156;28;20596;-65
2021/12/04 05:33:47;;;;;;;14.55;12.57;;;4.60;99.90;;;;;;4970116;28;20058;-65
2021/12/04 05:36:14;;;;;;;16.20;12.15;;;4.60;99.90;;;;;;4961148;28;20063;-65
2021/12/04 05:38:40;;;;;;;13.68;12.18;;;4.50;99.90;;;;;;4951540;28;20051;-65
2021/12/04 05:41:06;;;;;;;15.75;13.15;;;4.60;99.90;;;;;;4964276;28;20419;-65
2021/12/04 05:43:34;;;;;;;14.48;12.05;;;4.60;99.90;;;;;;4966357;28;20369;-65
2021/12/04 05:46:09;;;;;;;14.55;11.85;;;4.60;99.90;;;;;;4963472;28;20395;-65
2021/12/04 05:56:15;;;;;;;18.13;13.13;;;4.60;99.90;;;;;;4959193;28;20043;-65
2021/12/04 05:58:41;;;;;;;15.25;12.65;;;4.60;99.90;;;;;;4968084;28;20051;-65
2021/12/04 06:01:08;;;;;;;15.63;12.18;;;4.60;99.90;;;;;;4944078;28;20376;-65
2021/12/04 06:03:34;;;;;;;16.08;12.63;;;4.60;99.90;;;;;;4967594;28;20254;-65
2021/12/04 06:06:00;;;;;;;17.35;13.55;;;4.60;99.90;;;;;;4965860;28;20571;-65
2021/12/04 06:08:26;;;;;;;19.27;13.73;;;4.60;99.90;;;;;;4969535;28;20039;-65
2021/12/04 06:10:53;;;;;;;18.27;13.18;;;4.50;99.90;;;;;;4970915;28;20476;-65
2021/12/04 06:13:19;;;;;;;17.58;12.82;;;4.60;99.90;;;;;;4967577;28;20040;-65
2021/12/04 06:15:45;;;;;;;21.40;14.02;;;4.60;99.90;;;;;;4970482;28;20050;-65
2021/12/04 06:18:13;;;;;;;19.13;13.65;;;4.60;99.90;;;;;;4966804;28;20040;-65
2021/12/04 06:23:23;;;;;;;20.73;14.48;;;4.60;99.90;;;;;;4963428;28;20550;-65
2021/12/04 06:25:49;;;;;;;19.80;14.18;;;4.60;99.90;;;;;;4971232;28;20035;-65
2021/12/04 06:28:16;;;;;;;22.48;14.57;;;4.60;99.90;;;;;;4947179;28;20058;-65
2021/12/04 06:30:43;;;;;;;18.90;14.05;;;4.60;99.90;;;;;;4968066;28;20787;-65
2021/12/04 06:33:10;;;;;;;22.70;14.88;;;4.60;99.90;;;;;;4963521;28;20038;-65
2021/12/04 06:35:40;;;;;;;23.52;14.85;;;4.60;99.90;;;;;;4972797;28;20049;-65
2021/12/04 06:38:09;;;;;;;20.75;15.13;;;4.60;99.90;;;;;;4966081;28;20133;-65
2021/12/04 06:40:38;;;;;;;22.48;14.13;;;4.60;99.90;;;;;;4970718;28;20126;-65
2021/12/04 06:43:05;;;;;;;25.10;15.38;;;4.60;99.90;;;;;;4965661;28;20134;-65
2021/12/04 06:45:33;;;;;;;24.90;16.25;;;4.60;99.90;;;;;;4969555;28;20046;-65
2021/12/04 06:48:07;;;;;;;26.95;16.05;;;4.50;99.90;;;;;;4966127;28;20046;-65
2021/12/04 06:50:52;;;;;;;24.67;16.08;;;4.50;99.90;;;;;;4969989;28;20503;-65
2021/12/04 06:53:37;;;;;;;;;;;4.60;99.90;;;;;;4965928;28;20039;-65
2021/12/04 06:56:05;;;;;;;27.15;16.08;;;4.50;99.90;;;;;;4968600;28;19925;-65
2021/12/04 06:58:31;;;;;;;24.90;15.52;;;4.50;99.90;;;;;;4963188;28;20130;-65
2021/12/04 07:00:57;;;;;;;28.33;16.65;;;4.50;99.90;;;;;;4968585;28;20047;-65
2021/12/04 07:03:23;;;;;;;33.70;16.92;;;4.50;99.90;;;;;;4949914;28;20133;-65
2021/12/04 07:05:49;;;;;;;33.58;17.38;;;4.60;99.90;;;;;;4963995;28;20191;-65
2021/12/04 07:08:16;;;;;;;33.15;16.20;;;4.50;99.90;;;;;;4960093;28;20054;-65
2021/12/04 07:10:43;;;;;;;30.73;15.80;;;4.50;99.90;;;;;;4967972;28;20118;-65
2021/12/04 07:13:09;;;;;;;27.48;16.00;;;4.60;99.90;;;;;;4964295;28;20471;-65
2021/12/04 07:15:35;;;;;;;23.23;14.93;;;4.50;99.90;;;;;;4959759;28;20046;-65
2021/12/04 07:18:03;;;;;;;26.65;15.75;;;4.50;99.90;;;;;;4968588;28;20042;-65
2021/12/04 07:20:29;;;;;;;32.75;16.20;;;4.60;99.90;;;;;;4966568;28;20053;-65
2021/12/04 07:22:55;;;;;;;33.80;16.42;;;4.50;99.90;;;;;;4970488;28;20041;-65
2021/12/04 07:25:22;;;;;;;29.50;15.40;;;4.50;99.90;;;;;;4956193;28;20043;-65
2021/12/04 07:27:50;;;;;;;30.25;14.65;;;4.50;99.90;;;;;;4967062;28;20035;-65
2021/12/04 07:30:18;;;;;;;26.08;14.35;;;4.50;99.90;;;;;;4958041;28;20495;-65
2021/12/04 07:32:44;;;;;;;27.58;15.07;;;4.50;99.90;;;;;;4967995;28;20039;-65
2021/12/04 07:35:10;;;;;;;28.92;14.05;;;4.50;99.90;;;;;;4962158;28;20073;-65
2021/12/04 07:37:36;;;;;;;24.13;13.30;;;4.50;99.90;;;;;;4965314;28;20424;-65
2021/12/04 07:40:03;;;;;;;20.67;11.85;;;4.50;99.90;;;;;;4961303;28;20039;-65
2021/12/04 07:42:29;;;;;;;21.75;12.32;;;4.50;99.90;;;;;;4964171;28;20051;-65
2021/12/04 07:44:54;;;;;;;17.85;11.93;;;4.50;99.90;;;;;;4956464;28;20050;-65
2021/12/04 07:47:20;;;;;;;18.95;11.15;;;4.50;99.90;;;;;;4962179;28;20043;-65
2021/12/04 07:49:46;;;;;;;15.23;11.50;;;4.50;99.90;;;;;;4960931;28;20042;-65
2021/12/04 07:52:12;;;;;;;14.30;10.27;;;4.50;99.90;;;;;;4962245;28;20487;-65
2021/12/04 07:54:38;;;;;;;13.98;10.75;;;4.50;99.90;;;;;;4946356;28;20105;-65
2021/12/04 07:57:04;;;;;;;16.70;10.75;;;4.50;99.90;;;;;;4963755;28;20047;-65
2021/12/04 07:59:30;;;;;;;14.25;10.75;;;4.50;99.90;;;;;;4969854;28;20047;-65
2021/12/04 08:01:57;;;;;;;13.25;9.52;;;4.50;99.90;;;;;;4949330;28;20055;-65
2021/12/04 08:04:24;;;;;;;13.15;9.52;;;4.50;99.90;;;;;;4953116;28;20550;-66
2021/12/04 08:06:51;;;;;;;12.95;10.23;;;4.50;99.90;;;;;;4963242;28;20057;-65
2021/12/04 08:09:17;;;;;;;12.95;10.60;;;4.50;99.90;;;;;;4969148;28;20051;-65
2021/12/04 08:11:43;;;;;;;14.95;10.73;;;4.50;99.90;;;;;;4963991;28;20078;-65
2021/12/04 08:14:09;;;;;;;13.15;10.52;;;4.50;99.90;;;;;;4968803;28;20517;-65
2021/12/04 08:16:35;;;;;;;18.48;11.70;;;4.50;99.90;;;;;;4964451;28;20049;-65
2021/12/04 08:19:01;;;;;;;15.73;11.18;;;4.60;99.90;;;;;;4965998;28;20042;-65
2021/12/04 08:21:27;;;;;;;14.68;11.70;;;4.50;99.90;;;;;;4955930;28;20043;-65
2021/12/04 08:23:53;;;;;;;16.23;12.00;;;4.50;99.90;;;;;;4951170;28;20035;-65
2021/12/04 08:26:20;;;;;;;16.70;12.15;;;4.60;99.90;;;;;;4958573;28;20114;-65
2021/12/04 08:28:46;;;;;;;18.25;12.18;;;4.60;99.90;;;;;;4959982;28;20121;-65
2021/12/04 08:31:12;;;;;;;17.42;12.45;;;4.60;99.90;;;;;;4973368;28;20114;-65
2021/12/04 08:33:38;;;;;;;19.38;12.52;;;4.60;99.90;;;;;;4961870;28;20539;-65
2021/12/04 08:36:04;;;;;;;18.42;12.60;;;4.60;99.90;;;;;;4970203;28;20043;-65
2021/12/04 08:38:32;;;;;;;20.50;12.88;;;4.60;99.90;;;;;;4964938;28;20514;-65
2021/12/04 08:40:59;;;;;;;16.45;12.07;;;4.60;99.90;;;;;;4968162;28;20518;-65
2021/12/04 08:43:25;;;;;;;19.05;13.45;;;4.70;99.90;;;;;;4960502;28;20471;-65
2021/12/04 08:45:51;;;;;;;21.60;13.93;;;4.70;99.90;;;;;;4968265;28;20173;-65
2021/12/04 08:48:17;;;;;;;24.50;14.25;;;4.70;99.90;;;;;;4963503;28;20038;-65
2021/12/04 08:50:43;;;;;;;21.42;14.98;;;4.70;99.90;;;;;;4949705;28;20164;-65
2021/12/04 08:53:09;;;;;;;22.90;15.02;;;4.70;99.90;;;;;;4964457;28;20378;-65
2021/12/04 08:55:39;;;;;;;24.98;15.13;;;4.70;99.90;;;;;;4973487;28;20166;-65
2021/12/04 08:58:07;;;;;;;23.02;15.68;;;4.70;99.90;;;;;;4943169;28;20662;-65
2021/12/04 09:00:55;;;;;;;26.10;15.38;;;4.80;99.90;;;;;;4968748;28;20035;-65
2021/12/04 09:03:31;;;;;;;30.48;16.67;;;4.80;99.90;;;;;;4965508;28;20114;-65
2021/12/04 09:05:58;;;;;;;29.42;15.52;;;4.80;99.90;;;;;;4967799;28;20051;-65
2021/12/04 09:08:26;;;;;;;29.95;15.38;;;4.80;99.90;;;;;;4963196;28;20042;-65
2021/12/04 09:10:55;;;;;;;27.88;14.82;;;4.80;99.90;;;;;;4968214;28;20398;-65
2021/12/04 09:13:21;;;;;;;31.45;16.95;;;4.90;99.90;;;;;;4964886;28;20050;-65
2021/12/04 09:15:48;;;;;;;31.00;16.73;;;4.80;99.90;;;;;;4952714;28;20050;-65
2021/12/04 09:18:14;;;;;;;31.50;16.08;;;4.90;99.90;;;;;;4962639;28;20404;-65
2021/12/04 09:20:40;;;;;;;30.42;16.38;;;4.80;99.90;;;;;;4951637;28;20074;-65
2021/12/04 09:23:12;;;;;;;36.58;16.60;;;4.90;99.90;;;;;;4970184;28;20045;-65
2021/12/04 09:25:40;;;;;;;35.47;17.25;;;4.90;99.90;;;;;;4962066;28;20373;-65
2021/12/04 09:28:19;;;;;;;33.88;16.92;;;4.90;99.90;;;;;;4968779;28;20510;-65
2021/12/04 10:13:58;;;;;;;28.25;16.25;;;5.10;99.90;;;;;;4951616;28;20729;-65
2021/12/04 10:34:42;;;;;;;30.70;16.58;;;5.20;99.90;;;;;;4969712;28;20116;-64
2021/12/04 10:37:10;;;;;;;32.47;16.90;;;5.20;99.90;;;;;;4958772;28;20395;-64
2021/12/04 10:39:36;;;;;;;29.85;17.02;;;5.20;99.90;;;;;;4967902;28;20141;-65
2021/12/04 10:42:07;;;;;;;33.65;18.02;;;5.30;99.90;;;;;;4961281;28;20198;-64
2021/12/04 10:44:37;;;;;;;34.85;18.33;;;5.20;99.90;;;;;;4954377;28;20046;-64
2021/12/04 10:47:10;;;;;;;33.33;18.38;;;5.20;99.90;;;;;;4958885;28;20050;-64
2021/12/04 10:50:05;;;;;;;33.78;17.73;;;5.30;99.90;;;;;;4971730;28;20034;-65
2021/12/04 10:55:25;;;;;;;28.52;15.90;;;5.20;99.90;;;;;;4965435;28;20412;-65
2021/12/04 11:03:40;;;;;;;32.30;17.30;;;5.30;99.90;;;;;;4957675;28;20436;-65
2021/12/04 11:28:14;;;;;;;36.63;19.40;;;5.40;99.90;;;;;;4962749;28;20061;-65
2021/12/04 11:41:34;;;;;;;35.97;19.95;;;5.40;99.90;;;;;;4962005;28;20377;-65
2021/12/04 11:46:44;;;;;;;42.40;21.83;;;5.40;99.90;;;;;;4966473;28;20051;-65
2021/12/04 11:49:24;;;;;;;41.17;21.83;;;5.50;99.90;;;;;;4958385;28;20054;-65
2021/12/04 11:51:59;;;;;;;45.80;22.15;;;5.30;99.90;;;;;;4948790;28;20047;-65
2021/12/04 11:54:31;;;;;;;44.40;23.67;;;5.40;99.90;;;;;;4957949;28;20090;-65
2021/12/04 11:57:04;;;;;;;49.20;23.75;;;5.30;99.90;;;;;;4962829;28;20047;-65
2021/12/04 11:59:32;;;;;;;54.22;24.95;;;5.30;99.90;;;;;;4958490;28;20051;-65
2021/12/04 12:02:00;;;;;;;49.92;24.80;;;5.30;99.90;;;;;;4964188;28;20066;-65
2021/12/04 12:04:47;;;;;;;47.28;24.63;;;5.20;99.90;;;;;;4973315;28;20038;-65
2021/12/04 12:07:15;;;;;;;51.03;24.85;;;5.30;99.90;;;;;;4960654;28;20039;-65
2021/12/04 12:09:41;;;;;;;43.67;24.63;;;5.30;99.90;;;;;;4968087;28;20039;-65
2021/12/04 12:12:12;;;;;;;51.05;24.38;;;5.40;99.90;;;;;;4958405;28;20041;-65
2021/12/04 12:14:49;;;;;;;56.22;25.20;;;5.40;99.90;;;;;;4965944;28;20073;-65
2021/12/04 12:17:27;;;;;;;55.00;27.15;;;5.40;99.90;;;;;;4957394;28;20055;-65
2021/12/04 12:19:53;;;;;;;54.83;26.48;;;5.40;99.90;;;;;;4965824;28;20113;-65
2021/12/04 12:25:16;;;;;;;65.47;28.85;;;5.40;99.90;;;;;;4968567;28;20479;-66
2021/12/04 12:38:38;;;;;;;70.75;29.30;;;5.30;99.90;;;;;;4948426;28;20043;-65
2021/12/04 12:41:31;;;;;;;74.03;30.23;;;5.30;99.90;;;;;;4962108;28;20039;-65
2021/12/04 12:44:09;;;;;;;68.53;30.23;;;5.30;99.90;;;;;;4963917;28;20370;-65
2021/12/04 12:46:36;;;;;;;62.15;28.50;;;5.30;99.90;;;;;;4960108;28;20030;-65
2021/12/04 12:49:04;;;;;;;66.88;29.50;;;5.30;99.90;;;;;;4967416;28;20146;-65
2021/12/04 12:51:35;;;;;;;60.95;28.70;;;5.40;99.90;;;;;;4959302;28;20109;-66
2021/12/04 12:54:05;;;;;;;58.28;28.83;;;5.40;99.90;;;;;;4957275;28;20039;-65
2021/12/04 12:56:33;;;;;;;69.10;30.98;;;5.40;99.90;;;;;;4968717;28;20426;-66
2021/12/04 12:59:05;;;;;;;60.63;30.05;;;5.40;99.90;;;;;;4942345;28;20078;-66
2021/12/04 13:13:36;;;;;;;67.68;30.73;;;5.40;99.90;;;;;;4954278;28;20058;-66
2021/12/04 13:16:14;;;;;;;63.55;33.63;;;5.40;99.90;;;;;;4965620;28;20043;-66
2021/12/04 13:18:44;;;;;;;72.85;34.78;;;5.40;99.90;;;;;;4962286;28;20043;-66
2021/12/04 13:21:11;;;;;;;73.72;34.28;;;5.30;99.90;;;;;;4972305;28;20046;-66
2021/12/04 13:23:38;;;;;;;75.78;34.55;;;5.40;99.90;;;;;;4957873;28;20114;-66
2021/12/04 13:26:10;;;;;;;87.03;37.53;;;5.40;99.90;;;;;;4969709;28;20098;-66
2021/12/04 13:28:40;;;;;;;87.63;39.85;;;5.40;99.90;;;;;;4959661;28;20368;-66
2021/12/04 13:31:06;;;;;;;91.28;40.28;;;5.30;99.90;;;;;;4969645;28;20078;-65
2021/12/04 13:33:36;;;;;;;85.80;38.20;;;5.30;99.90;;;;;;4960505;28;20035;-66
2021/12/04 13:36:02;;;;;;;94.60;40.22;;;5.30;99.90;;;;;;4970497;28;20077;-65
2021/12/04 13:38:28;;;;;;;90.82;39.70;;;5.30;99.90;;;;;;4963387;28;20130;-67
2021/12/04 13:40:55;;;;;;;88.47;38.88;;;5.20;99.90;;;;;;4967109;28;20479;-66
2021/12/04 13:43:23;;;;;;;91.50;41.17;;;5.20;99.90;;;;;;4968889;28;20122;-66
2021/12/04 13:45:58;;;;;;;94.15;40.92;;;5.30;99.90;;;;;;4969350;28;20043;-66
2021/12/04 13:48:24;;;;;;;82.60;40.70;;;5.30;99.90;;;;;;4964491;28;20484;-66
2021/12/04 13:50:50;;;;;;;86.47;40.60;;;5.30;99.90;;;;;;4959558;28;20054;-66
2021/12/04 13:53:21;;;;;;;92.10;40.67;;;5.30;99.90;;;;;;4968512;28;20117;-66
2021/12/04 13:55:52;;;;;;;89.53;39.50;;;5.30;99.90;;;;;;4945919;28;20035;-66
2021/12/04 13:58:19;;;;;;;106.75;43.13;;;5.30;99.90;;;;;;4964778;28;20034;-66
2021/12/04 14:00:45;;;;;;;93.05;41.20;;;5.30;99.90;;;;;;4960219;28;20049;-66
2021/12/04 14:03:12;;;;;;;93.32;41.28;;;5.30;99.90;;;;;;4952285;28;20085;-66
2021/12/04 14:05:38;;;;;;;93.47;43.55;;;5.30;99.90;;;;;;4946635;28;20604;-66
2021/12/04 14:08:06;;;;;;;102.75;42.35;;;5.30;99.90;;;;;;4965250;28;20071;-66
2021/12/04 14:10:40;;;;;;;95.70;42.35;;;5.30;99.90;;;;;;4963223;28;20107;-66
2021/12/04 14:13:07;;;;;;;89.88;41.83;;;5.20;99.90;;;;;;4952973;28;20050;-66
2021/12/04 14:15:34;;;;;;;92.13;42.33;;;5.20;99.90;;;;;;4961848;28;20391;-66
2021/12/04 14:18:09;;;;;;;95.45;41.65;;;5.20;99.90;;;;;;4963433;28;20055;-66
2021/12/04 14:20:38;;;;;;;90.15;38.85;;;5.20;99.90;;;;;;4962699;28;20463;-66
2021/12/04 14:23:05;;;;;;;87.30;40.47;;;5.20;99.90;;;;;;4968181;28;20094;-65
2021/12/04 14:25:31;;;;;;;89.93;41.22;;;5.20;99.90;;;;;;4957821;28;20435;-65
2021/12/04 14:27:59;;;;;;;82.28;40.85;;;5.20;99.90;;;;;;4968107;28;20110;-65
2021/12/04 14:30:32;;;;;;;89.95;40.08;;;5.20;99.90;;;;;;4965154;28;20047;-65
2021/12/04 14:33:00;;;;;;;76.70;38.28;;;5.20;99.90;;;;;;4966406;28;20558;-65
2021/12/04 14:35:32;;;;;;;81.18;39.88;;;5.20;99.90;;;;;;4959693;28;20114;-65
2021/12/04 14:38:00;;;;;;;83.55;39.30;;;5.20;99.90;;;;;;4964624;28;20039;-65
2021/12/04 14:40:31;;;;;;;86.68;39.05;;;5.20;99.90;;;;;;4967627;28;20134;-66
2021/12/04 14:42:57;;;;;;;77.40;38.42;;;5.20;99.90;;;;;;4945385;28;20042;-65
2021/12/04 14:45:28;;;;;;;72.70;36.22;;;5.20;99.90;;;;;;4949677;28;20039;-65
2021/12/04 14:47:57;;;;;;;83.72;38.42;;;5.20;99.90;;;;;;4958619;28;20060;-65
2021/12/04 14:50:24;;;;;;;68.38;36.33;;;5.20;99.90;;;;;;4967725;28;20042;-65
2021/12/04 14:52:57;;;;;;;77.82;36.13;;;5.20;99.90;;;;;;4960233;28;20125;-66
2021/12/04 14:55:29;;;;;;;70.10;36.15;;;5.20;99.90;;;;;;4963287;28;20479;-65
2021/12/04 14:57:57;;;;;;;76.30;35.88;;;5.20;99.90;;;;;;4956096;28;20349;-66
2021/12/04 15:00:30;;;;;;;66.90;35.97;;;5.20;99.90;;;;;;4964190;28;20122;-65
2021/12/04 15:03:00;;;;;;;69.47;35.50;;;5.20;99.90;;;;;;4959425;28;20519;-65
2021/12/04 15:05:33;;;;;;;74.05;36.47;;;5.20;99.90;;;;;;4965500;28;20420;-65
2021/12/04 15:08:07;;;;;;;77.23;36.50;;;5.20;99.90;;;;;;4966109;28;20104;-65
2021/12/04 15:10:33;;;;;;;77.83;35.93;;;5.20;99.90;;;;;;4964042;28;20035;-65
2021/12/04 15:13:00;;;;;;;73.13;37.47;;;5.20;99.90;;;;;;4958125;28;20093;-66
2021/12/04 15:15:35;;;;;;;87.03;40.33;;;5.20;99.90;;;;;;4963682;28;20035;-65
2021/12/04 15:18:10;;;;;;;86.82;39.78;;;5.20;99.90;;;;;;4958978;28;20079;-65
2021/12/04 15:20:41;;;;;;;88.00;39.08;;;5.20;99.90;;;;;;4971096;28;20137;-65
2021/12/04 15:23:13;;;;;;;86.85;39.42;;;5.20;99.90;;;;;;4959864;28;20102;-65
2021/12/04 15:25:41;;;;;;;99.18;39.65;;;5.30;99.90;;;;;;4965207;28;20074;-66
2021/12/04 15:28:19;;;;;;;110.43;41.75;;;5.20;99.90;;;;;;4955456;28;20043;-66
2021/12/04 15:30:52;;;;;;;107.13;40.70;;;5.30;99.90;;;;;;4953201;28;20106;-66
2021/12/04 15:33:23;;;;;;;95.97;40.83;;;5.20;99.90;;;;;;4943611;28;20089;-66
2021/12/04 15:35:51;;;;;;;87.60;40.50;;;5.20;99.90;;;;;;4965693;28;20046;-66
2021/12/04 15:38:26;;;;;;;93.22;39.90;;;5.20;99.90;;;;;;4958754;28;20077;-66
2021/12/04 15:43:32;;;;;;;98.38;42.20;;;5.20;99.90;;;;;;4940846;28;20066;-66
2021/12/04 15:54:28;;;;;;;97.15;42.30;;;5.20;99.90;;;;;;4961872;28;20529;-65
2021/12/04 15:56:54;;;;;;;80.63;39.53;;;5.20;99.90;;;;;;4965441;28;20050;-65
2021/12/04 15:59:21;;;;;;;93.30;41.30;;;5.20;99.90;;;;;;4958494;28;20535;-65
2021/12/04 16:01:50;;;;;;;87.03;40.95;;;5.20;99.90;;;;;;4965541;28;20043;-65
2021/12/04 16:04:30;;;;;;;89.63;40.00;;;5.30;99.90;;;;;;4960089;28;20403;-65
2021/12/04 16:06:57;;;;;;;94.15;40.40;;;5.30;99.90;;;;;;4964536;28;20553;-65
2021/12/04 16:09:35;;;;;;;87.60;39.50;;;5.20;99.90;;;;;;4965334;28;20102;-65
2021/12/04 16:12:08;;;;;;;84.82;39.53;;;5.20;99.90;;;;;;4940872;28;20105;-65
2021/12/04 16:14:45;;;;;;;97.85;41.00;;;5.30;99.90;;;;;;4956737;28;24552;-65
2021/12/04 16:17:12;;;;;;;89.78;42.42;;;5.20;99.90;;;;;;4966891;28;20113;-65